Time;durP1;ratioP1;P1;durP2;ratioP2;P2;SDS_P1;SDS_P2;PMS_P1;PMS_P2;Temp;Humidity;BMP_temperature;BMP_pressure;BME280_temperature;BME280_humidity;BME280_pressure;Samples;Min_cycle;Max_cycle;Signal;HPM_P1;HPM_P2
2021/01/02 00:01:04;;;;;;;3.05;2.55;;;;;;;;;;5013256;28;20060;-88
2021/01/02 00:03:31;;;;;;;3.90;2.78;;;;;;;;;;5030308;28;20496;-88
2021/01/02 00:06:08;;;;;;;3.63;3.17;;;;;;;;;;5029477;28;20028;-88
2021/01/02 00:08:38;;;;;;;3.22;2.50;;;;;;;;;;5030795;28;20108;-88
2021/01/02 00:11:22;;;;;;;3.30;2.85;;;;;;;;;;5012897;28;20025;-88
2021/01/02 00:13:59;;;;;;;3.80;3.25;;;;;;;;;;5012439;28;20033;-88
2021/01/02 00:16:28;;;;;;;5.32;4.20;;;;;;;;;;5012970;28;20056;-88
2021/01/02 00:19:04;;;;;;;3.15;2.75;;;;;;;;;;5030609;28;20068;-88
2021/01/02 00:21:38;;;;;;;6.40;3.95;;;;;;;;;;5012694;28;20021;-88
2021/01/02 00:24:04;;;;;;;3.65;3.35;;;;;;;;;;5030169;28;20365;-88
2021/01/02 00:26:51;;;;;;;3.67;2.90;;;;;;;;;;5013024;28;20025;-88
2021/01/02 00:29:20;;;;;;;4.63;3.70;;;;;;;;;;4990461;28;20074;-88
2021/01/02 00:32:04;;;;;;;4.80;3.50;;;;;;;;;;5015276;28;20554;-88
2021/01/02 00:34:45;;;;;;;7.00;3.72;;;;;;;;;;5033403;28;20461;-88
2021/01/02 00:37:30;;;;;;;6.22;3.75;;;;;;;;;;5032718;28;20018;-88
2021/01/02 00:39:56;;;;;;;4.97;3.28;;;;;;;;;;4997234;28;20030;-88
2021/01/02 00:42:22;;;;;;;3.42;2.63;;;;;;;;;;4996773;28;20022;-87
2021/01/02 00:44:48;;;;;;;2.42;2.22;;;;;;;;;;5014201;28;20057;-89
2021/01/02 00:47:15;;;;;;;4.18;3.15;;;;;;;;;;4997253;28;20022;-88
2021/01/02 00:49:43;;;;;;;2.97;2.50;;;;;;;;;;4994149;28;20053;-88
2021/01/02 00:52:24;;;;;;;3.10;2.80;;;;;;;;;;5010401;28;20489;-88
2021/01/02 00:55:10;;;;;;;5.85;3.40;;;;;;;;;;4993317;28;20503;-88
2021/01/02 00:57:36;;;;;;;3.67;2.80;;;;;;;;;;4993147;28;20034;-87
2021/01/02 01:00:07;;;;;;;5.10;2.67;;;;;;;;;;4976939;28;20034;-87
2021/01/02 01:02:33;;;;;;;2.55;2.20;;;;;;;;;;4993503;28;20030;-88
2021/01/02 01:05:06;;;;;;;2.80;2.45;;;;;;;;;;4991772;28;20022;-88
2021/01/02 01:07:33;;;;;;;3.22;2.15;;;;;;;;;;4993519;28;20030;-88
2021/01/02 01:10:01;;;;;;;4.07;2.83;;;;;;;;;;4993439;28;20066;-88
2021/01/02 01:12:28;;;;;;;4.60;3.15;;;;;;;;;;4994619;28;20030;-87
2021/01/02 01:14:54;;;;;;;3.72;3.22;;;;;;;;;;4993898;28;20038;-88
2021/01/02 01:17:22;;;;;;;3.95;3.13;;;;;;;;;;4993296;28;20038;-88
2021/01/02 01:19:52;;;;;;;5.85;3.97;;;;;;;;;;4976729;28;20061;-88
2021/01/02 01:22:20;;;;;;;4.22;3.17;;;;;;;;;;4976647;28;20057;-88
2021/01/02 01:24:50;;;;;;;3.17;2.90;;;;;;;;;;4975810;28;20023;-88
2021/01/02 01:27:37;;;;;;;3.78;2.65;;;;;;;;;;4993549;28;20497;-88
2021/01/02 01:30:03;;;;;;;2.60;2.40;;;;;;;;;;4966427;28;20039;-87
2021/01/02 01:32:29;;;;;;;2.67;2.47;;;;;;;;;;4975819;28;20072;-88
2021/01/02 01:34:57;;;;;;;2.38;2.17;;;;;;;;;;4975017;28;20034;-88
2021/01/02 01:37:25;;;;;;;3.25;2.60;;;;;;;;;;4980175;28;20018;-88
2021/01/02 01:39:52;;;;;;;2.42;2.22;;;;;;;;;;5013858;28;20080;-89
2021/01/02 01:42:41;;;;;;;3.20;2.65;;;;;;;;;;4995611;28;20026;-88
2021/01/02 01:45:26;;;;;;;6.05;3.25;;;;;;;;;;4968232;28;20033;-89
2021/01/02 01:48:04;;;;;;;4.00;2.90;;;;;;;;;;4995982;28;20041;-88
2021/01/02 01:50:50;;;;;;;3.85;2.88;;;;;;;;;;4995897;28;20018;-88
2021/01/02 01:53:35;;;;;;;2.88;2.45;;;;;;;;;;4982066;28;20100;-88
2021/01/02 01:56:04;;;;;;;3.05;2.60;;;;;;;;;;4995100;28;20389;-89
2021/01/02 01:58:51;;;;;;;3.88;3.47;;;;;;;;;;4995585;28;20026;-88
2021/01/02 02:01:23;;;;;;;4.85;2.95;;;;;;;;;;4995210;28;20501;-88
2021/01/02 02:04:00;;;;;;;4.25;2.88;;;;;;;;;;4994342;28;20481;-88
2021/01/02 02:06:30;;;;;;;4.18;3.05;;;;;;;;;;4993767;28;20446;-88
2021/01/02 02:08:58;;;;;;;3.75;2.70;;;;;;;;;;4994831;28;20057;-88
2021/01/02 02:11:33;;;;;;;3.10;2.75;;;;;;;;;;4995706;28;20021;-88
2021/01/02 02:14:01;;;;;;;3.35;2.90;;;;;;;;;;4994864;28;20116;-88
2021/01/02 02:16:35;;;;;;;2.88;2.67;;;;;;;;;;5012977;28;20018;-88
2021/01/02 02:19:07;;;;;;;3.70;2.92;;;;;;;;;;4995620;28;20124;-88
2021/01/02 02:21:34;;;;;;;4.90;2.70;;;;;;;;;;5012786;28;20022;-88
2021/01/02 02:24:01;;;;;;;4.10;2.30;;;;;;;;;;4994573;28;20026;-88
2021/01/02 02:26:30;;;;;;;4.05;3.35;;;;;;;;;;4995402;28;20029;-89
2021/01/02 02:28:56;;;;;;;3.75;3.10;;;;;;;;;;4995585;28;20026;-88
2021/01/02 02:31:23;;;;;;;4.25;3.33;;;;;;;;;;4994740;28;20014;-88
2021/01/02 02:33:59;;;;;;;3.00;2.00;;;;;;;;;;5012288;28;20030;-88
2021/01/02 02:36:29;;;;;;;2.83;2.30;;;;;;;;;;5011432;28;20069;-88
2021/01/02 02:38:57;;;;;;;3.10;2.47;;;;;;;;;;4991876;28;20394;-88
2021/01/02 02:41:25;;;;;;;4.65;2.80;;;;;;;;;;4993601;28;20025;-88
2021/01/02 02:43:53;;;;;;;5.00;3.05;;;;;;;;;;4990879;28;20041;-88
2021/01/02 02:46:20;;;;;;;4.85;2.90;;;;;;;;;;4991480;28;20026;-88
2021/01/02 02:48:47;;;;;;;4.00;2.88;;;;;;;;;;4991946;28;20053;-88
2021/01/02 02:51:15;;;;;;;3.33;2.45;;;;;;;;;;4992764;28;20023;-88
2021/01/02 02:53:41;;;;;;;2.30;1.83;;;;;;;;;;4998974;28;20528;-88
2021/01/02 02:56:07;;;;;;;2.83;2.15;;;;;;;;;;4994637;28;20479;-88
2021/01/02 02:58:33;;;;;;;3.50;2.13;;;;;;;;;;4994142;28;20375;-88
2021/01/02 03:00:59;;;;;;;2.90;2.58;;;;;;;;;;5012118;28;20029;-88
2021/01/02 03:03:27;;;;;;;3.03;2.70;;;;;;;;;;4994467;28;20030;-88
2021/01/02 03:05:54;;;;;;;4.88;2.70;;;;;;;;;;4992718;28;20034;-88
2021/01/02 03:08:20;;;;;;;2.45;2.25;;;;;;;;;;5011923;28;20160;-88
2021/01/02 03:10:46;;;;;;;3.10;1.95;;;;;;;;;;4994657;28;20026;-88
2021/01/02 03:13:13;;;;;;;2.63;2.22;;;;;;;;;;4994526;28;20029;-88
2021/01/02 03:15:40;;;;;;;2.33;2.05;;;;;;;;;;4994751;28;20107;-88
2021/01/02 03:18:06;;;;;;;2.63;2.28;;;;;;;;;;4994714;28;20044;-88
2021/01/02 03:20:32;;;;;;;5.85;2.70;;;;;;;;;;4994202;28;20141;-88
2021/01/02 03:22:58;;;;;;;2.97;2.30;;;;;;;;;;4993642;28;20036;-88
2021/01/02 03:25:24;;;;;;;2.55;1.75;;;;;;;;;;4993680;28;20492;-88
2021/01/02 03:27:54;;;;;;;3.85;2.47;;;;;;;;;;4993763;28;20500;-88
2021/01/02 03:30:20;;;;;;;2.85;2.28;;;;;;;;;;4993740;28;20033;-88
2021/01/02 03:32:47;;;;;;;2.72;2.13;;;;;;;;;;5010951;28;20034;-88
2021/01/02 03:35:14;;;;;;;3.10;1.70;;;;;;;;;;4992413;28;20064;-88
2021/01/02 03:37:41;;;;;;;2.22;2.00;;;;;;;;;;4989308;28;20461;-88
2021/01/02 03:40:08;;;;;;;2.95;2.17;;;;;;;;;;4990568;28;20024;-88
2021/01/02 03:42:38;;;;;;;2.22;2.10;;;;;;;;;;4992598;28;20033;-89
2021/01/02 03:45:08;;;;;;;2.13;1.92;;;;;;;;;;4993417;28;20366;-88
2021/01/02 03:47:35;;;;;;;2.97;2.25;;;;;;;;;;4993267;28;20050;-88
2021/01/02 03:50:01;;;;;;;3.00;1.88;;;;;;;;;;5011443;28;20520;-89
2021/01/02 03:52:27;;;;;;;3.15;2.67;;;;;;;;;;4993511;28;20056;-88
2021/01/02 03:54:53;;;;;;;2.00;1.60;;;;;;;;;;5010573;28;20053;-88
2021/01/02 03:57:19;;;;;;;2.50;2.22;;;;;;;;;;5010873;28;20493;-88
2021/01/02 03:59:45;;;;;;;3.20;2.10;;;;;;;;;;5010950;28;20531;-88
2021/01/02 04:02:11;;;;;;;2.85;2.28;;;;;;;;;;4993579;28;20068;-88
2021/01/02 04:04:37;;;;;;;2.75;2.28;;;;;;;;;;5009523;28;20054;-88
2021/01/02 04:07:04;;;;;;;2.95;2.03;;;;;;;;;;4993172;28;20033;-88
2021/01/02 04:09:30;;;;;;;3.00;2.35;;;;;;;;;;5009669;28;20114;-88
2021/01/02 04:11:57;;;;;;;2.70;2.50;;;;;;;;;;5009560;28;20032;-88
2021/01/02 04:14:23;;;;;;;2.67;2.45;;;;;;;;;;5010986;28;20056;-88
2021/01/02 04:16:49;;;;;;;3.45;2.50;;;;;;;;;;5010171;28;20105;-88
2021/01/02 04:19:15;;;;;;;1.70;1.60;;;;;;;;;;4993273;28;20033;-88
2021/01/02 04:21:41;;;;;;;3.08;2.13;;;;;;;;;;5010768;28;20485;-88
2021/01/02 04:24:08;;;;;;;2.28;1.48;;;;;;;;;;4993139;28;20022;-87
2021/01/02 04:26:34;;;;;;;2.70;2.13;;;;;;;;;;5010744;28;20089;-88
2021/01/02 04:29:00;;;;;;;2.25;2.05;;;;;;;;;;5011316;28;20026;-88
2021/01/02 04:31:37;;;;;;;4.13;2.08;;;;;;;;;;5010829;28;20036;-88
2021/01/02 04:34:03;;;;;;;2.30;2.10;;;;;;;;;;4992992;28;20076;-88
2021/01/02 04:36:29;;;;;;;2.92;2.13;;;;;;;;;;4992030;28;20054;-88
2021/01/02 04:38:55;;;;;;;2.30;2.08;;;;;;;;;;4989599;28;20082;-88
2021/01/02 04:41:21;;;;;;;1.63;1.52;;;;;;;;;;4993461;28;20033;-88
2021/01/02 04:43:48;;;;;;;2.85;2.13;;;;;;;;;;5010544;28;20018;-88
2021/01/02 04:46:15;;;;;;;2.63;2.42;;;;;;;;;;4992826;28;20022;-88
2021/01/02 04:48:41;;;;;;;2.55;2.35;;;;;;;;;;4993652;28;20396;-88
2021/01/02 04:51:08;;;;;;;3.15;2.05;;;;;;;;;;5010851;28;20022;-88
2021/01/02 04:53:34;;;;;;;3.22;2.40;;;;;;;;;;5010240;28;20045;-89
2021/01/02 04:56:03;;;;;;;2.10;1.90;;;;;;;;;;5010612;28;20092;-88
2021/01/02 04:58:30;;;;;;;2.33;1.98;;;;;;;;;;4992627;28;20037;-87
2021/01/02 05:00:57;;;;;;;1.92;1.83;;;;;;;;;;4992699;28;20638;-88
2021/01/02 05:03:23;;;;;;;3.13;2.15;;;;;;;;;;4992739;28;20028;-88
2021/01/02 05:05:52;;;;;;;2.30;2.08;;;;;;;;;;5009220;28;20405;-88
2021/01/02 05:08:18;;;;;;;2.25;2.05;;;;;;;;;;5010667;28;20145;-87
2021/01/02 05:11:00;;;;;;;2.30;2.10;;;;;;;;;;4993006;28;20042;-88
2021/01/02 05:13:33;;;;;;;2.65;2.33;;;;;;;;;;5010250;28;20121;-88
2021/01/02 05:16:15;;;;;;;3.17;2.15;;;;;;;;;;4992543;28;20033;-88
2021/01/02 05:19:01;;;;;;;2.47;2.13;;;;;;;;;;4997127;28;20113;-88
2021/01/02 05:21:28;;;;;;;1.92;1.70;;;;;;;;;;5014066;28;20037;-88
2021/01/02 05:24:06;;;;;;;2.03;1.65;;;;;;;;;;4995947;28;20068;-88
2021/01/02 05:26:33;;;;;;;2.38;2.08;;;;;;;;;;5014053;28;20036;-88
2021/01/02 05:29:08;;;;;;;3.08;2.75;;;;;;;;;;4996489;28;20026;-88
2021/01/02 05:31:37;;;;;;;3.00;1.85;;;;;;;;;;4996501;28;20049;-88
2021/01/02 05:34:04;;;;;;;2.50;2.15;;;;;;;;;;4995621;28;20026;-88
2021/01/02 05:36:30;;;;;;;2.33;2.13;;;;;;;;;;4994843;28;20030;-88
2021/01/02 05:38:56;;;;;;;2.65;2.33;;;;;;;;;;4980197;28;20061;-88
2021/01/02 05:41:22;;;;;;;1.48;1.38;;;;;;;;;;4976566;28;20042;-88
2021/01/02 05:43:48;;;;;;;2.33;1.92;;;;;;;;;;4975951;28;20023;-88
2021/01/02 05:46:14;;;;;;;4.03;2.58;;;;;;;;;;4993842;28;20458;-88
2021/01/02 05:48:40;;;;;;;2.33;2.10;;;;;;;;;;4994016;28;20497;-87
2021/01/02 05:51:07;;;;;;;3.53;3.20;;;;;;;;;;4976725;28;20038;-89
2021/01/02 05:53:34;;;;;;;3.08;2.00;;;;;;;;;;4975862;28;20045;-88
2021/01/02 05:56:02;;;;;;;3.88;2.50;;;;;;;;;;4993703;28;20042;-88
2021/01/02 05:58:31;;;;;;;3.40;2.55;;;;;;;;;;4976307;28;20505;-88
2021/01/02 06:01:04;;;;;;;3.63;2.58;;;;;;;;;;4993684;28;20033;-88
2021/01/02 06:03:30;;;;;;;4.65;2.63;;;;;;;;;;4975451;28;20022;-88
2021/01/02 06:05:57;;;;;;;2.63;2.20;;;;;;;;;;4992416;28;20031;-88
2021/01/02 06:08:43;;;;;;;2.05;1.85;;;;;;;;;;4976005;28;20515;-88
2021/01/02 06:11:14;;;;;;;4.68;2.35;;;;;;;;;;4976271;28;20401;-88
2021/01/02 06:13:44;;;;;;;2.35;2.25;;;;;;;;;;4975465;28;20027;-88
2021/01/02 06:16:11;;;;;;;2.70;2.13;;;;;;;;;;4993601;28;20424;-88
2021/01/02 06:18:38;;;;;;;2.28;2.08;;;;;;;;;;4976030;28;20065;-88
2021/01/02 06:21:11;;;;;;;1.95;1.70;;;;;;;;;;4975962;28;20038;-88
2021/01/02 06:23:38;;;;;;;3.53;2.35;;;;;;;;;;4975473;28;20026;-88
2021/01/02 06:26:08;;;;;;;2.20;1.33;;;;;;;;;;4993352;28;20470;-88
2021/01/02 06:28:35;;;;;;;3.22;2.03;;;;;;;;;;4974762;28;20233;-88
2021/01/02 06:31:02;;;;;;;3.55;3.15;;;;;;;;;;4993472;28;20042;-88
2021/01/02 06:33:29;;;;;;;2.50;2.05;;;;;;;;;;4975342;28;20030;-88
2021/01/02 06:35:55;;;;;;;1.75;1.65;;;;;;;;;;4991828;28;20049;-88
2021/01/02 06:38:22;;;;;;;1.83;1.42;;;;;;;;;;4986753;28;20025;-88
2021/01/02 06:40:49;;;;;;;2.28;1.70;;;;;;;;;;4995249;28;20440;-88
2021/01/02 06:43:16;;;;;;;5.72;1.60;;;;;;;;;;4994442;28;20034;-88
2021/01/02 06:45:42;;;;;;;1.70;1.60;;;;;;;;;;5012308;28;20041;-88
2021/01/02 06:48:17;;;;;;;1.63;1.52;;;;;;;;;;4995195;28;20026;-88
2021/01/02 06:50:44;;;;;;;2.25;2.00;;;;;;;;;;4994951;28;20025;-88
2021/01/02 06:53:20;;;;;;;1.60;1.30;;;;;;;;;;4993914;28;20068;-88
2021/01/02 06:55:46;;;;;;;1.50;1.40;;;;;;;;;;4993947;28;20026;-87
2021/01/02 06:58:18;;;;;;;2.85;1.50;;;;;;;;;;5011781;28;20034;-88
2021/01/02 07:00:44;;;;;;;1.52;1.42;;;;;;;;;;4994546;28;20436;-88
2021/01/02 07:03:29;;;;;;;1.88;1.63;;;;;;;;;;5012024;28;20084;-88
2021/01/02 07:05:55;;;;;;;2.83;1.83;;;;;;;;;;4992958;28;20022;-88
2021/01/02 07:08:40;;;;;;;3.10;1.83;;;;;;;;;;4994438;28;20450;-88
2021/01/02 07:11:26;;;;;;;2.08;1.80;;;;;;;;;;4994646;28;20117;-88
2021/01/02 07:14:11;;;;;;;2.33;2.03;;;;;;;;;;4993125;28;20080;-88
2021/01/02 07:16:49;;;;;;;1.83;1.23;;;;;;;;;;4993671;28;20545;-88
2021/01/02 07:19:31;;;;;;;1.90;1.77;;;;;;;;;;4994647;28;20089;-88
2021/01/02 07:22:03;;;;;;;1.55;1.30;;;;;;;;;;4993777;28;20034;-88
2021/01/02 07:24:30;;;;;;;2.47;1.52;;;;;;;;;;5011574;28;20473;-88
2021/01/02 07:27:01;;;;;;;2.25;2.03;;;;;;;;;;4993152;28;20030;-87
2021/01/02 07:29:27;;;;;;;2.10;2.00;;;;;;;;;;5011429;28;20496;-89
2021/01/02 07:31:54;;;;;;;2.25;1.90;;;;;;;;;;4994150;28;20484;-88
2021/01/02 07:34:24;;;;;;;1.65;1.55;;;;;;;;;;5010833;28;20025;-87
2021/01/02 07:36:50;;;;;;;2.88;1.65;;;;;;;;;;5010597;28;20509;-88
2021/01/02 07:39:18;;;;;;;2.00;1.90;;;;;;;;;;4975159;28;20030;-88
2021/01/02 07:41:44;;;;;;;1.73;1.60;;;;;;;;;;4974423;28;20058;-88
2021/01/02 07:44:11;;;;;;;1.77;1.33;;;;;;;;;;4973884;28;20612;-88
2021/01/02 07:46:48;;;;;;;1.80;1.70;;;;;;;;;;4991460;28;20546;-88
2021/01/02 07:49:17;;;;;;;1.55;1.45;;;;;;;;;;4992393;28;20026;-88
2021/01/02 07:51:47;;;;;;;1.42;1.20;;;;;;;;;;4974270;28;20029;-88
2021/01/02 07:54:13;;;;;;;1.90;1.80;;;;;;;;;;4981474;28;20049;-88
2021/01/02 07:56:43;;;;;;;2.13;1.92;;;;;;;;;;5010853;28;20073;-87
2021/01/02 07:59:21;;;;;;;2.13;1.92;;;;;;;;;;5011188;28;20026;-88
2021/01/02 08:01:55;;;;;;;2.95;1.48;;;;;;;;;;4993460;28;20026;-88
2021/01/02 08:04:22;;;;;;;1.58;1.48;;;;;;;;;;4992896;28;20021;-88
2021/01/02 08:06:52;;;;;;;2.20;1.95;;;;;;;;;;5010327;28;20045;-87
2021/01/02 08:09:18;;;;;;;3.92;1.92;;;;;;;;;;5010960;28;20034;-87
2021/01/02 08:12:05;;;;;;;3.20;1.83;;;;;;;;;;5011202;28;20039;-88
2021/01/02 08:14:32;;;;;;;2.13;1.70;;;;;;;;;;4993045;28;20057;-88
2021/01/02 08:17:06;;;;;;;1.88;1.30;;;;;;;;;;5010467;28;20034;-88
2021/01/02 08:19:34;;;;;;;1.80;1.70;;;;;;;;;;4993653;28;20030;-88
2021/01/02 08:22:00;;;;;;;2.53;1.90;;;;;;;;;;5011224;28;20037;-88
2021/01/02 08:24:27;;;;;;;3.40;2.28;;;;;;;;;;4993252;28;20041;-88
2021/01/02 08:26:53;;;;;;;3.13;1.52;;;;;;;;;;4992486;28;20022;-88
2021/01/02 08:29:19;;;;;;;1.38;1.27;;;;;;;;;;5011277;28;20056;-88
2021/01/02 08:31:50;;;;;;;1.92;1.70;;;;;;;;;;4992777;28;20033;-88
2021/01/02 08:34:19;;;;;;;3.55;1.88;;;;;;;;;;4992546;28;20025;-88
2021/01/02 08:36:45;;;;;;;2.15;1.95;;;;;;;;;;5009947;28;20030;-88
2021/01/02 08:39:18;;;;;;;1.73;1.60;;;;;;;;;;5010875;28;20021;-88
2021/01/02 08:41:48;;;;;;;2.08;1.48;;;;;;;;;;4993246;28;20026;-88
2021/01/02 08:44:20;;;;;;;1.98;1.83;;;;;;;;;;4992653;28;20038;-88
2021/01/02 08:46:46;;;;;;;1.90;1.80;;;;;;;;;;5010741;28;20033;-88
2021/01/02 08:49:25;;;;;;;1.65;1.55;;;;;;;;;;5011177;28;20033;-88
2021/01/02 08:51:51;;;;;;;1.60;1.50;;;;;;;;;;5011779;28;20058;-88
2021/01/02 08:54:17;;;;;;;2.00;1.80;;;;;;;;;;5013006;28;20563;-88
2021/01/02 08:56:43;;;;;;;1.65;1.45;;;;;;;;;;4995497;28;20038;-88
2021/01/02 08:59:12;;;;;;;2.75;2.35;;;;;;;;;;4995852;28;20064;-88
2021/01/02 09:01:39;;;;;;;1.65;1.55;;;;;;;;;;5007050;28;20026;-88
2021/01/02 09:04:11;;;;;;;2.50;2.25;;;;;;;;;;5011912;28;20397;-88
2021/01/02 09:06:37;;;;;;;2.30;1.80;;;;;;;;;;5011222;28;20416;-88
2021/01/02 09:09:07;;;;;;;2.63;2.42;;;;;;;;;;5012473;28;20271;-88
2021/01/02 09:11:47;;;;;;;1.95;1.33;;;;;;;;;;4994758;28;20052;-89
2021/01/02 09:14:13;;;;;;;2.38;1.50;;;;;;;;;;5011845;28;20037;-88
2021/01/02 09:16:39;;;;;;;2.22;2.00;;;;;;;;;;5012082;28;20030;-88
2021/01/02 09:19:05;;;;;;;1.77;1.65;;;;;;;;;;4993771;28;20029;-88
2021/01/02 09:21:31;;;;;;;2.55;2.03;;;;;;;;;;5012257;28;20030;-88
2021/01/02 09:23:57;;;;;;;2.00;1.80;;;;;;;;;;5011882;28;20075;-89
2021/01/02 09:26:28;;;;;;;2.83;2.55;;;;;;;;;;4994437;28;20328;-88
2021/01/02 09:28:54;;;;;;;1.92;1.67;;;;;;;;;;5012152;28;20109;-88
2021/01/02 09:31:21;;;;;;;1.63;1.52;;;;;;;;;;5011745;28;20040;-88
2021/01/02 09:33:47;;;;;;;2.15;1.65;;;;;;;;;;5011716;28;20041;-88
2021/01/02 09:36:14;;;;;;;1.70;1.40;;;;;;;;;;5011009;28;20500;-88
2021/01/02 09:38:41;;;;;;;1.65;1.25;;;;;;;;;;5010495;28;20429;-88
2021/01/02 09:41:07;;;;;;;2.28;1.98;;;;;;;;;;4995124;28;20121;-88
2021/01/02 09:43:33;;;;;;;2.15;1.92;;;;;;;;;;4994589;28;20524;-88
2021/01/02 09:45:59;;;;;;;1.23;1.13;;;;;;;;;;5011985;28;20105;-88
2021/01/02 09:48:25;;;;;;;1.45;1.13;;;;;;;;;;4994893;28;20025;-88
2021/01/02 09:50:52;;;;;;;1.63;1.52;;;;;;;;;;5012224;28;20030;-88
2021/01/02 09:53:18;;;;;;;1.95;1.63;;;;;;;;;;4963891;28;764902;-88
2021/01/02 09:55:44;;;;;;;1.00;0.90;;;;;;;;;;4976250;28;20034;-89
2021/01/02 09:58:11;;;;;;;1.13;1.05;;;;;;;;;;4975482;28;20038;-88
2021/01/02 10:00:37;;;;;;;1.98;1.42;;;;;;;;;;4993561;28;20089;-88
2021/01/02 10:03:04;;;;;;;2.00;1.42;;;;;;;;;;4993376;28;20504;-88
2021/01/02 10:05:30;;;;;;;2.45;1.50;;;;;;;;;;4974907;28;20057;-88
2021/01/02 10:07:56;;;;;;;1.23;1.02;;;;;;;;;;4975864;28;20401;-88
2021/01/02 10:10:22;;;;;;;1.00;0.95;;;;;;;;;;4993921;28;20030;-88
2021/01/02 10:12:49;;;;;;;1.10;1.00;;;;;;;;;;4975651;28;20094;-88
2021/01/02 10:15:16;;;;;;;1.50;1.35;;;;;;;;;;4975833;28;20030;-88
2021/01/02 10:17:42;;;;;;;0.90;0.90;;;;;;;;;;4975893;28;20061;-88
2021/01/02 10:20:09;;;;;;;1.08;0.98;;;;;;;;;;4992199;28;20477;-88
2021/01/02 10:22:35;;;;;;;1.27;1.27;;;;;;;;;;4993059;28;20397;-89
2021/01/02 10:25:01;;;;;;;0.80;0.80;;;;;;;;;;4993287;28;20061;-89
2021/01/02 10:27:27;;;;;;;0.93;0.85;;;;;;;;;;4993090;28;20450;-88
2021/01/02 10:29:54;;;;;;;0.70;0.70;;;;;;;;;;4993228;28;20041;-88
2021/01/02 10:32:21;;;;;;;1.00;0.88;;;;;;;;;;4975457;28;20033;-88
2021/01/02 10:34:51;;;;;;;0.75;0.75;;;;;;;;;;4974230;28;20059;-88
2021/01/02 10:37:21;;;;;;;1.10;1.00;;;;;;;;;;4974810;28;20311;-88
2021/01/02 10:39:47;;;;;;;1.27;0.88;;;;;;;;;;4991460;28;20030;-88
2021/01/02 10:42:15;;;;;;;0.60;0.60;;;;;;;;;;4991512;28;20061;-88
2021/01/02 10:44:45;;;;;;;1.15;0.80;;;;;;;;;;4990841;28;20025;-89
2021/01/02 10:47:12;;;;;;;1.33;1.23;;;;;;;;;;4991491;28;20026;-88
2021/01/02 10:49:38;;;;;;;0.60;0.60;;;;;;;;;;4991665;28;20423;-89
2021/01/02 10:52:04;;;;;;;1.00;1.00;;;;;;;;;;4991739;28;20053;-88
2021/01/02 10:54:32;;;;;;;1.52;1.42;;;;;;;;;;4990937;28;20053;-88
2021/01/02 10:56:59;;;;;;;0.85;0.85;;;;;;;;;;4992221;28;20527;-89
2021/01/02 10:59:25;;;;;;;1.90;0.80;;;;;;;;;;4992949;28;20386;-88
2021/01/02 11:01:52;;;;;;;0.57;0.57;;;;;;;;;;4992570;28;20092;-89
2021/01/02 11:04:20;;;;;;;0.85;0.63;;;;;;;;;;4991902;28;20371;-88
2021/01/02 11:06:49;;;;;;;0.70;0.70;;;;;;;;;;4990467;28;20026;-89
2021/01/02 11:09:15;;;;;;;0.80;0.77;;;;;;;;;;4992581;28;20101;-88
2021/01/02 11:11:42;;;;;;;0.90;0.85;;;;;;;;;;4991240;28;20397;-88
2021/01/02 11:14:08;;;;;;;1.67;1.10;;;;;;;;;;4991550;28;20011;-88
2021/01/02 11:16:39;;;;;;;1.35;0.80;;;;;;;;;;4991810;28;20054;-89
2021/01/02 11:19:31;;;;;;;1.40;1.30;;;;;;;;;;4992724;28;20027;-88
2021/01/02 11:22:00;;;;;;;0.70;0.70;;;;;;;;;;4971163;28;20054;-88
2021/01/02 11:24:27;;;;;;;1.27;0.90;;;;;;;;;;4991893;28;20053;-88
2021/01/02 11:26:55;;;;;;;0.90;0.88;;;;;;;;;;4990570;28;20026;-89
2021/01/02 11:29:22;;;;;;;1.15;0.77;;;;;;;;;;4990711;28;20077;-88
2021/01/02 11:31:48;;;;;;;1.30;1.20;;;;;;;;;;4990400;28;20109;-88
2021/01/02 11:34:15;;;;;;;0.60;0.60;;;;;;;;;;4990157;28;20121;-88
2021/01/02 11:36:41;;;;;;;0.80;0.70;;;;;;;;;;4989699;28;20034;-88
2021/01/02 11:39:08;;;;;;;1.10;0.98;;;;;;;;;;5009331;28;20026;-88
2021/01/02 11:41:35;;;;;;;1.23;1.13;;;;;;;;;;4994150;28;20061;-88
2021/01/02 11:44:02;;;;;;;1.25;1.15;;;;;;;;;;5010767;28;20042;-88
2021/01/02 11:46:34;;;;;;;1.42;1.00;;;;;;;;;;4993638;28;20084;-88
2021/01/02 11:49:00;;;;;;;1.15;1.05;;;;;;;;;;4993795;28;20030;-88
2021/01/02 11:51:26;;;;;;;1.33;1.23;;;;;;;;;;5011580;28;20026;-89
2021/01/02 11:53:52;;;;;;;1.05;0.90;;;;;;;;;;4993121;28;20076;-88
2021/01/02 11:56:22;;;;;;;0.95;0.88;;;;;;;;;;5011313;28;20504;-88
2021/01/02 11:58:48;;;;;;;1.23;1.13;;;;;;;;;;4993271;28;20033;-88
2021/01/02 12:01:14;;;;;;;1.02;1.02;;;;;;;;;;4993868;28;20018;-88
2021/01/02 12:03:40;;;;;;;1.00;1.00;;;;;;;;;;4992908;28;20090;-88
2021/01/02 12:06:06;;;;;;;1.20;1.10;;;;;;;;;;5009629;28;20030;-88
2021/01/02 12:08:32;;;;;;;1.10;1.00;;;;;;;;;;5011425;28;20033;-88
2021/01/02 12:10:58;;;;;;;0.98;0.98;;;;;;;;;;5010627;28;20065;-88
2021/01/02 12:13:24;;;;;;;1.88;0.90;;;;;;;;;;4992702;28;20034;-88
2021/01/02 12:15:51;;;;;;;1.08;1.00;;;;;;;;;;4993550;28;20432;-88
2021/01/02 12:18:17;;;;;;;0.75;0.75;;;;;;;;;;5010899;28;20485;-88
2021/01/02 12:20:44;;;;;;;0.60;0.60;;;;;;;;;;5010950;28;20022;-88
2021/01/02 12:23:10;;;;;;;0.80;0.80;;;;;;;;;;5009196;28;20033;-88
2021/01/02 12:25:36;;;;;;;0.65;0.65;;;;;;;;;;5010685;28;20474;-88
2021/01/02 12:28:02;;;;;;;0.90;0.90;;;;;;;;;;5009879;28;20072;-88
2021/01/02 12:30:29;;;;;;;0.80;0.80;;;;;;;;;;5010798;28;20064;-87
2021/01/02 12:32:56;;;;;;;1.33;1.17;;;;;;;;;;4992418;28;20044;-89
2021/01/02 12:35:22;;;;;;;1.70;1.52;;;;;;;;;;5009676;28;20564;-89
2021/01/02 12:37:49;;;;;;;0.80;0.80;;;;;;;;;;5010657;28;20033;-88
2021/01/02 12:40:15;;;;;;;1.33;1.23;;;;;;;;;;5011342;28;20500;-88
2021/01/02 12:42:41;;;;;;;1.35;1.13;;;;;;;;;;5010216;28;20026;-88
2021/01/02 12:45:08;;;;;;;0.80;0.80;;;;;;;;;;4993084;28;20112;-88
2021/01/02 12:47:35;;;;;;;0.80;0.80;;;;;;;;;;5010054;28;20083;-88
2021/01/02 12:50:01;;;;;;;1.00;0.75;;;;;;;;;;5010800;28;20405;-88
2021/01/02 12:52:30;;;;;;;0.80;0.80;;;;;;;;;;4993201;28;20176;-88
2021/01/02 12:54:56;;;;;;;1.55;1.08;;;;;;;;;;4992566;28;20716;-88
2021/01/02 12:57:23;;;;;;;1.80;1.48;;;;;;;;;;4993174;28;20547;-88
2021/01/02 12:59:53;;;;;;;2.22;1.90;;;;;;;;;;4993013;28;20075;-88
2021/01/02 13:02:19;;;;;;;1.40;1.30;;;;;;;;;;4993072;28;20072;-88
2021/01/02 13:04:45;;;;;;;2.05;1.27;;;;;;;;;;5008961;28;20525;-88
2021/01/02 13:07:11;;;;;;;1.70;1.60;;;;;;;;;;4993047;28;20030;-88
2021/01/02 13:09:37;;;;;;;1.88;1.55;;;;;;;;;;4993012;28;20030;-88
2021/01/02 13:12:04;;;;;;;2.13;1.73;;;;;;;;;;4992958;28;20133;-88
2021/01/02 13:14:30;;;;;;;2.35;2.15;;;;;;;;;;4992703;28;20088;-88
2021/01/02 13:16:57;;;;;;;2.90;2.13;;;;;;;;;;5009927;28;20037;-88
2021/01/02 13:19:24;;;;;;;2.17;1.98;;;;;;;;;;5011105;28;20022;-88
2021/01/02 13:21:52;;;;;;;2.05;1.85;;;;;;;;;;5010188;28;20018;-88
2021/01/02 13:24:18;;;;;;;1.85;1.60;;;;;;;;;;4992098;28;20124;-88
2021/01/02 13:26:48;;;;;;;1.90;1.70;;;;;;;;;;4992073;28;20026;-88
2021/01/02 13:29:15;;;;;;;2.00;1.75;;;;;;;;;;4992503;28;20025;-88
2021/01/02 13:31:42;;;;;;;1.85;1.70;;;;;;;;;;4992813;28;20519;-88
2021/01/02 13:34:09;;;;;;;1.42;1.30;;;;;;;;;;4992750;28;20029;-88
2021/01/02 13:36:35;;;;;;;2.15;1.95;;;;;;;;;;4992193;28;20029;-88
2021/01/02 13:39:02;;;;;;;2.63;2.10;;;;;;;;;;5012790;28;20076;-88
2021/01/02 13:41:28;;;;;;;2.00;1.45;;;;;;;;;;4996568;28;20431;-88
2021/01/02 13:43:54;;;;;;;2.28;1.92;;;;;;;;;;4995545;28;20026;-88
2021/01/02 13:46:20;;;;;;;2.03;1.90;;;;;;;;;;4995841;28;20021;-88
2021/01/02 13:48:46;;;;;;;2.55;1.75;;;;;;;;;;4995727;28;20037;-89
2021/01/02 13:51:12;;;;;;;2.25;2.03;;;;;;;;;;4996367;28;20030;-88
2021/01/02 13:53:38;;;;;;;1.35;1.25;;;;;;;;;;5005568;28;20136;-88
2021/01/02 13:56:04;;;;;;;1.30;1.20;;;;;;;;;;4993726;28;20034;-88
2021/01/02 13:58:30;;;;;;;2.17;2.00;;;;;;;;;;4976439;28;20053;-88
2021/01/02 14:00:56;;;;;;;1.55;1.40;;;;;;;;;;4994320;28;20003;-89
2021/01/02 14:03:22;;;;;;;1.50;1.38;;;;;;;;;;4993774;28;20117;-88
2021/01/02 14:05:48;;;;;;;1.75;1.50;;;;;;;;;;4992547;28;20022;-89
2021/01/02 14:08:14;;;;;;;2.15;1.98;;;;;;;;;;4975500;28;20082;-88
2021/01/02 14:10:40;;;;;;;1.83;1.73;;;;;;;;;;4993569;28;20038;-88
2021/01/02 14:13:06;;;;;;;2.35;1.73;;;;;;;;;;4993299;28;20481;-88
2021/01/02 14:15:32;;;;;;;1.58;1.38;;;;;;;;;;4975846;28;20512;-88
2021/01/02 14:17:58;;;;;;;1.83;1.55;;;;;;;;;;4993233;28;20489;-88
2021/01/02 14:20:24;;;;;;;1.50;1.40;;;;;;;;;;4975911;28;20030;-88
2021/01/02 14:22:50;;;;;;;2.75;2.00;;;;;;;;;;4992898;28;20030;-88
2021/01/02 14:25:17;;;;;;;1.20;1.00;;;;;;;;;;4976036;28;20227;-88
2021/01/02 14:27:43;;;;;;;1.70;1.60;;;;;;;;;;4975585;28;20348;-88
2021/01/02 14:30:10;;;;;;;2.70;2.03;;;;;;;;;;4976014;28;20035;-88
2021/01/02 14:32:36;;;;;;;1.65;1.20;;;;;;;;;;4992850;28;20034;-88
2021/01/02 14:35:03;;;;;;;1.92;1.63;;;;;;;;;;4974364;28;20502;-88
2021/01/02 14:37:29;;;;;;;1.58;1.48;;;;;;;;;;4997022;28;20026;-88
2021/01/02 14:39:55;;;;;;;2.95;2.63;;;;;;;;;;5012635;28;20037;-88
2021/01/02 14:42:21;;;;;;;1.42;1.33;;;;;;;;;;5012826;28;20029;-89
2021/01/02 14:44:47;;;;;;;2.15;1.92;;;;;;;;;;5011579;28;20034;-88
2021/01/02 14:47:13;;;;;;;1.75;1.50;;;;;;;;;;4995075;28;20029;-88
2021/01/02 14:49:39;;;;;;;2.03;1.80;;;;;;;;;;4994012;28;20571;-88
2021/01/02 14:52:06;;;;;;;1.75;1.65;;;;;;;;;;5012368;28;20032;-88